Time;durP1;ratioP1;P1;durP2;ratioP2;P2;SDS_P1;SDS_P2;PMS_P1;PMS_P2;Temp;Humidity;BMP_temperature;BMP_pressure;BME280_temperature;BME280_humidity;BME280_pressure;Samples;Min_cycle;Max_cycle;Signal;HPM_P1;HPM_P2
2022/12/18 00:01:34;;;;;;;94.50;38.95;;;;;;;;;;5028541;28;20025;-70
2022/12/18 00:04:01;;;;;;;89.68;37.22;;;;;;;;;;5040732;28;20108;-71
2022/12/18 00:06:28;;;;;;;88.70;37.75;;;;;;;;;;5039867;28;20045;-67
2022/12/18 00:08:55;;;;;;;93.38;39.38;;;;;;;;;;5051298;28;20029;-70
2022/12/18 00:11:22;;;;;;;98.90;39.25;;;;;;;;;;5036851;28;20378;-70
2022/12/18 00:13:50;;;;;;;91.60;38.38;;;;;;;;;;5047303;28;20040;-69
2022/12/18 00:16:20;;;;;;;100.47;39.63;;;;;;;;;;5027751;28;20029;-68
2022/12/18 00:18:46;;;;;;;92.60;38.20;;;;;;;;;;5041412;28;20062;-68
2022/12/18 00:21:13;;;;;;;90.03;35.70;;;;;;;;;;5031709;28;20045;-68
2022/12/18 00:23:39;;;;;;;98.65;39.42;;;;;;;;;;5039045;28;20386;-69
2022/12/18 00:26:07;;;;;;;95.03;36.97;;;;;;;;;;5048983;28;20032;-69
2022/12/18 00:28:33;;;;;;;104.80;39.28;;;;;;;;;;5050353;28;20029;-67
2022/12/18 00:31:00;;;;;;;88.28;37.65;;;;;;;;;;5032510;28;20032;-68
2022/12/18 00:33:27;;;;;;;84.88;35.50;;;;;;;;;;5031361;28;20543;-69
2022/12/18 00:35:53;;;;;;;91.80;37.58;;;;;;;;;;5034242;28;20041;-69
2022/12/18 00:38:19;;;;;;;80.78;34.38;;;;;;;;;;5041036;28;20029;-70
2022/12/18 00:40:45;;;;;;;96.35;36.95;;;;;;;;;;5045406;28;20025;-69
2022/12/18 00:43:11;;;;;;;92.65;37.65;;;;;;;;;;5047684;28;20048;-69
2022/12/18 00:45:37;;;;;;;88.10;33.92;;;;;;;;;;5047572;28;20037;-68
2022/12/18 00:48:03;;;;;;;90.80;35.17;;;;;;;;;;5050196;28;20071;-68
2022/12/18 00:50:29;;;;;;;80.68;35.03;;;;;;;;;;5048028;28;20032;-69
2022/12/18 00:52:55;;;;;;;74.43;32.95;;;;;;;;;;5050121;28;20041;-69
2022/12/18 00:55:21;;;;;;;93.72;37.20;;;;;;;;;;5049252;28;20036;-69
2022/12/18 00:57:47;;;;;;;83.70;34.30;;;;;;;;;;5048322;28;20032;-69
2022/12/18 01:00:14;;;;;;;85.03;35.80;;;;;;;;;;5045492;28;20037;-69
2022/12/18 01:02:41;;;;;;;89.07;33.25;;;;;;;;;;5039278;28;20030;-70
2022/12/18 01:05:07;;;;;;;85.65;34.33;;;;;;;;;;5032321;28;20032;-69
2022/12/18 01:07:33;;;;;;;93.13;35.60;;;;;;;;;;5049097;28;20388;-69
2022/12/18 01:09:59;;;;;;;101.30;38.03;;;;;;;;;;5046267;28;20473;-69
2022/12/18 01:12:25;;;;;;;83.63;33.65;;;;;;;;;;5050699;28;20127;-68
2022/12/18 01:14:51;;;;;;;87.97;35.08;;;;;;;;;;5037500;28;20030;-68
2022/12/18 01:17:17;;;;;;;84.82;34.63;;;;;;;;;;5049123;28;20033;-69
2022/12/18 01:19:43;;;;;;;98.65;35.05;;;;;;;;;;5032442;28;20449;-68
2022/12/18 01:22:09;;;;;;;84.35;32.70;;;;;;;;;;5050351;28;20506;-69
2022/12/18 01:24:35;;;;;;;91.57;34.15;;;;;;;;;;5047527;28;20044;-68
2022/12/18 01:27:01;;;;;;;86.80;33.85;;;;;;;;;;5032319;28;20033;-68
2022/12/18 01:29:28;;;;;;;89.60;35.75;;;;;;;;;;5049392;28;20041;-68
2022/12/18 01:31:55;;;;;;;83.55;33.47;;;;;;;;;;5031051;28;20036;-68
2022/12/18 01:34:22;;;;;;;76.20;32.08;;;;;;;;;;5030254;28;20465;-68
2022/12/18 01:36:48;;;;;;;75.28;32.47;;;;;;;;;;5050971;28;20394;-69
2022/12/18 01:39:15;;;;;;;79.63;33.03;;;;;;;;;;5048083;28;20106;-69
2022/12/18 01:44:45;;;;;;;77.38;31.92;;;;;;;;;;5048656;28;20072;-68
2022/12/18 01:47:14;;;;;;;77.68;32.63;;;;;;;;;;5027257;28;20017;-69
2022/12/18 01:49:41;;;;;;;79.35;31.20;;;;;;;;;;5044551;28;20025;-68
2022/12/18 01:52:07;;;;;;;81.68;32.58;;;;;;;;;;5050786;28;20571;-69
2022/12/18 01:54:33;;;;;;;86.38;32.85;;;;;;;;;;5049700;28;20053;-69
2022/12/18 01:57:00;;;;;;;77.38;33.08;;;;;;;;;;5047092;28;20064;-68
2022/12/18 01:59:27;;;;;;;85.07;31.70;;;;;;;;;;5042823;28;20106;-68
2022/12/18 02:01:53;;;;;;;78.68;31.65;;;;;;;;;;5049534;28;20029;-68
2022/12/18 02:04:24;;;;;;;82.88;33.47;;;;;;;;;;5034258;28;20045;-69
2022/12/18 02:07:06;;;;;;;91.82;32.63;;;;;;;;;;5042880;28;20473;-69
2022/12/18 02:09:34;;;;;;;90.10;34.33;;;;;;;;;;5046661;28;20040;-69
2022/12/18 02:12:06;;;;;;;78.93;32.45;;;;;;;;;;5040731;28;20100;-69
2022/12/18 02:14:32;;;;;;;85.05;32.58;;;;;;;;;;5045320;28;20033;-68
2022/12/18 02:17:11;;;;;;;83.63;33.08;;;;;;;;;;5046861;28;20422;-69
2022/12/18 02:19:59;;;;;;;83.68;31.33;;;;;;;;;;5047889;28;20533;-69
2022/12/18 02:22:30;;;;;;;82.28;31.85;;;;;;;;;;5046128;28;20028;-68
2022/12/18 02:24:56;;;;;;;80.10;32.88;;;;;;;;;;5048882;28;20252;-67
2022/12/18 02:27:23;;;;;;;79.60;31.27;;;;;;;;;;5049035;28;20032;-69
2022/12/18 02:29:51;;;;;;;74.18;33.28;;;;;;;;;;5047155;28;20386;-69
2022/12/18 02:32:22;;;;;;;82.38;33.05;;;;;;;;;;5041273;28;20029;-66
2022/12/18 02:34:49;;;;;;;79.35;31.98;;;;;;;;;;5035920;28;20123;-68
2022/12/18 02:37:17;;;;;;;82.97;31.75;;;;;;;;;;5016011;28;20099;-69
2022/12/18 02:39:45;;;;;;;84.00;32.58;;;;;;;;;;5031683;28;20040;-69
2022/12/18 02:42:11;;;;;;;81.03;31.73;;;;;;;;;;5047284;28;20029;-68
2022/12/18 02:44:45;;;;;;;85.28;33.95;;;;;;;;;;5042603;28;20048;-68
2022/12/18 02:47:12;;;;;;;85.65;33.67;;;;;;;;;;5033418;28;20021;-68
2022/12/18 02:49:57;;;;;;;84.55;33.05;;;;;;;;;;5046229;28;20035;-68
2022/12/18 02:52:29;;;;;;;86.32;33.40;;;;;;;;;;5032607;28;20033;-68
2022/12/18 02:54:58;;;;;;;86.95;34.05;;;;;;;;;;5038354;28;20033;-68
2022/12/18 02:57:46;;;;;;;79.22;32.22;;;;;;;;;;5043146;28;20066;-69
2022/12/18 03:00:20;;;;;;;88.20;33.30;;;;;;;;;;5044569;28;20171;-70
2022/12/18 03:02:54;;;;;;;84.82;33.25;;;;;;;;;;5048715;28;20068;-68
2022/12/18 03:05:23;;;;;;;85.63;33.75;;;;;;;;;;5049061;28;20051;-69
2022/12/18 03:08:07;;;;;;;91.30;32.45;;;;;;;;;;5048547;28;20029;-69
2022/12/18 03:10:38;;;;;;;93.03;34.97;;;;;;;;;;5047178;28;20468;-69
2022/12/18 03:13:12;;;;;;;96.03;35.45;;;;;;;;;;5046620;28;20037;-68
2022/12/18 03:15:41;;;;;;;84.10;32.47;;;;;;;;;;5046739;28;20036;-68
2022/12/18 03:18:11;;;;;;;91.72;36.83;;;;;;;;;;5049440;28;20214;-68
2022/12/18 03:20:38;;;;;;;83.97;33.53;;;;;;;;;;5052051;28;20021;-68
2022/12/18 03:23:08;;;;;;;89.38;36.00;;;;;;;;;;5052987;28;20573;-69
2022/12/18 03:25:35;;;;;;;89.00;34.38;;;;;;;;;;5052789;28;20482;-68
2022/12/18 03:28:02;;;;;;;83.85;34.55;;;;;;;;;;5051965;28;20112;-68
2022/12/18 03:30:30;;;;;;;89.18;34.25;;;;;;;;;;5047504;28;20029;-68
2022/12/18 03:33:02;;;;;;;89.60;36.70;;;;;;;;;;5051986;28;20485;-68
2022/12/18 03:35:30;;;;;;;89.35;36.65;;;;;;;;;;5033352;28;20390;-68
2022/12/18 03:37:56;;;;;;;89.38;35.10;;;;;;;;;;5050295;28;20032;-68
2022/12/18 03:40:23;;;;;;;87.75;35.35;;;;;;;;;;5050363;28;20508;-69
2022/12/18 03:42:52;;;;;;;80.68;33.33;;;;;;;;;;5047261;28;20063;-68
2022/12/18 03:45:32;;;;;;;88.85;35.80;;;;;;;;;;5052414;28;20466;-67
2022/12/18 03:48:11;;;;;;;85.35;35.00;;;;;;;;;;5049594;28;20036;-68
2022/12/18 03:50:43;;;;;;;85.50;33.47;;;;;;;;;;5048471;28;20029;-67
2022/12/18 03:53:12;;;;;;;90.55;32.90;;;;;;;;;;5033007;28;20029;-67
2022/12/18 03:55:39;;;;;;;90.60;35.92;;;;;;;;;;5051878;28;20029;-68
2022/12/18 03:58:06;;;;;;;85.13;34.63;;;;;;;;;;5051420;28;20044;-69
2022/12/18 04:00:34;;;;;;;92.18;35.72;;;;;;;;;;5047922;28;20037;-67
2022/12/18 04:03:01;;;;;;;94.20;36.30;;;;;;;;;;5043709;28;20037;-67
2022/12/18 04:05:27;;;;;;;87.00;35.65;;;;;;;;;;5032727;28;20490;-67
2022/12/18 04:07:54;;;;;;;86.53;33.17;;;;;;;;;;5043624;28;20103;-69
2022/12/18 04:10:20;;;;;;;85.82;33.30;;;;;;;;;;5052403;28;20051;-68
2022/12/18 04:12:46;;;;;;;81.07;32.30;;;;;;;;;;5047482;28;20033;-67
2022/12/18 04:15:12;;;;;;;79.85;29.63;;;;;;;;;;5049580;28;20390;-68
2022/12/18 04:17:39;;;;;;;72.78;30.83;;;;;;;;;;5049003;28;20025;-67
2022/12/18 04:20:05;;;;;;;75.05;30.20;;;;;;;;;;5052275;28;20036;-67
2022/12/18 04:22:31;;;;;;;76.50;29.90;;;;;;;;;;5041215;28;20558;-68
2022/12/18 04:24:57;;;;;;;77.85;31.77;;;;;;;;;;5051784;28;20318;-70
2022/12/18 04:27:23;;;;;;;72.80;32.03;;;;;;;;;;5051434;28;20477;-70
2022/12/18 04:29:49;;;;;;;72.32;29.52;;;;;;;;;;5048724;28;20036;-67
2022/12/18 04:32:16;;;;;;;76.70;30.27;;;;;;;;;;5051458;28;20048;-67
2022/12/18 04:34:42;;;;;;;65.07;28.27;;;;;;;;;;5049081;28;20037;-68
2022/12/18 04:37:08;;;;;;;70.85;30.10;;;;;;;;;;5051053;28;20037;-70
2022/12/18 04:39:35;;;;;;;68.53;29.25;;;;;;;;;;5051056;28;20096;-67
2022/12/18 04:42:01;;;;;;;69.30;29.02;;;;;;;;;;5044943;28;20025;-67
2022/12/18 04:44:27;;;;;;;70.60;28.95;;;;;;;;;;5044985;28;20171;-68
2022/12/18 04:46:53;;;;;;;79.88;30.38;;;;;;;;;;5040049;28;20037;-68
2022/12/18 04:49:19;;;;;;;76.00;30.02;;;;;;;;;;5047178;28;20040;-68
2022/12/18 04:51:45;;;;;;;78.55;31.10;;;;;;;;;;5046243;28;20021;-67
2022/12/18 04:54:11;;;;;;;70.05;29.33;;;;;;;;;;5009852;28;20102;-68
2022/12/18 04:56:37;;;;;;;72.18;30.35;;;;;;;;;;5024482;28;20551;-68
2022/12/18 04:59:04;;;;;;;72.93;26.73;;;;;;;;;;5046370;28;20048;-68
2022/12/18 05:01:30;;;;;;;74.30;28.70;;;;;;;;;;5045992;28;20029;-67
2022/12/18 05:03:56;;;;;;;61.50;26.13;;;;;;;;;;5047220;28;20033;-68
2022/12/18 05:06:22;;;;;;;65.07;26.30;;;;;;;;;;5046121;28;20050;-71
2022/12/18 05:08:48;;;;;;;72.63;28.63;;;;;;;;;;5044244;28;20037;-68
2022/12/18 05:11:18;;;;;;;65.22;27.05;;;;;;;;;;5045700;28;20559;-68
2022/12/18 05:13:45;;;;;;;74.47;26.90;;;;;;;;;;5046239;28;20044;-69
2022/12/18 05:16:11;;;;;;;60.33;25.20;;;;;;;;;;5047100;28;20403;-68
2022/12/18 05:18:38;;;;;;;60.45;24.67;;;;;;;;;;5028322;28;20037;-68
2022/12/18 05:21:04;;;;;;;66.57;26.58;;;;;;;;;;5048180;28;20515;-67
2022/12/18 05:23:30;;;;;;;60.20;24.90;;;;;;;;;;5027266;28;20045;-68
2022/12/18 05:25:58;;;;;;;58.85;25.33;;;;;;;;;;5040709;28;20587;-71
2022/12/18 05:28:25;;;;;;;63.47;27.20;;;;;;;;;;5031293;28;20037;-68
2022/12/18 05:30:52;;;;;;;62.00;25.38;;;;;;;;;;5043009;28;20025;-68
2022/12/18 05:33:18;;;;;;;60.58;24.55;;;;;;;;;;5046914;28;20032;-69
2022/12/18 05:35:44;;;;;;;64.00;24.30;;;;;;;;;;5047177;28;20025;-68
2022/12/18 05:38:11;;;;;;;53.63;24.15;;;;;;;;;;5045613;28;20028;-68
2022/12/18 05:40:37;;;;;;;59.90;24.83;;;;;;;;;;5045160;28;20468;-68
2022/12/18 05:43:06;;;;;;;60.53;25.88;;;;;;;;;;5029180;28;20500;-67
2022/12/18 05:45:32;;;;;;;57.08;24.13;;;;;;;;;;5043075;28;20033;-68
2022/12/18 05:47:58;;;;;;;54.10;21.63;;;;;;;;;;5045604;28;20043;-69
2022/12/18 05:50:24;;;;;;;60.17;21.75;;;;;;;;;;5043249;28;20044;-69
2022/12/18 05:52:50;;;;;;;52.80;22.48;;;;;;;;;;5043453;28;20049;-68
2022/12/18 05:55:16;;;;;;;56.42;23.92;;;;;;;;;;5027621;28;20044;-68
2022/12/18 05:57:42;;;;;;;58.72;22.73;;;;;;;;;;5045951;28;20033;-68
2022/12/18 06:00:08;;;;;;;50.90;20.55;;;;;;;;;;5039207;28;20029;-68
2022/12/18 06:02:35;;;;;;;56.55;22.00;;;;;;;;;;5042878;28;20273;-68
2022/12/18 06:05:01;;;;;;;59.33;24.48;;;;;;;;;;5028715;28;20033;-68
2022/12/18 06:07:27;;;;;;;56.35;22.50;;;;;;;;;;5043975;28;20060;-68
2022/12/18 06:09:53;;;;;;;55.92;23.00;;;;;;;;;;5043140;28;20033;-68
2022/12/18 06:12:19;;;;;;;62.78;23.70;;;;;;;;;;5025056;28;20041;-70
2022/12/18 06:14:45;;;;;;;56.10;22.23;;;;;;;;;;5040643;28;20128;-68
2022/12/18 06:17:11;;;;;;;54.83;21.00;;;;;;;;;;5041194;28;20043;-67
2022/12/18 06:19:37;;;;;;;51.70;21.67;;;;;;;;;;5035844;28;20033;-68
2022/12/18 06:22:03;;;;;;;53.25;21.88;;;;;;;;;;5043752;28;20045;-69
2022/12/18 06:24:30;;;;;;;49.63;20.27;;;;;;;;;;5024222;28;20049;-68
2022/12/18 06:26:56;;;;;;;54.25;20.67;;;;;;;;;;5040639;28;20347;-67
2022/12/18 06:29:22;;;;;;;50.30;21.60;;;;;;;;;;5045028;28;20044;-69
2022/12/18 06:31:48;;;;;;;48.40;19.70;;;;;;;;;;5024014;28;20038;-68
2022/12/18 06:34:14;;;;;;;78.35;29.52;;;;;;;;;;5048432;28;20481;-67
2022/12/18 06:36:40;;;;;;;46.97;20.10;;;;;;;;;;5065828;28;20040;-69
2022/12/18 06:39:06;;;;;;;43.00;19.83;;;;;;;;;;5027091;28;20024;-67
2022/12/18 06:41:32;;;;;;;55.60;21.42;;;;;;;;;;5045145;28;20040;-68
2022/12/18 06:43:58;;;;;;;41.20;19.85;;;;;;;;;;5046067;28;20393;-70
2022/12/18 06:46:24;;;;;;;47.10;20.10;;;;;;;;;;5040598;28;20029;-68
2022/12/18 06:48:51;;;;;;;43.58;19.73;;;;;;;;;;5043268;28;20037;-69
2022/12/18 06:51:18;;;;;;;46.00;19.17;;;;;;;;;;5047298;28;20123;-68
2022/12/18 06:53:44;;;;;;;43.83;18.25;;;;;;;;;;5034745;28;20086;-67
2022/12/18 06:56:10;;;;;;;51.00;19.52;;;;;;;;;;5047981;28;20048;-68
2022/12/18 06:58:36;;;;;;;48.15;19.33;;;;;;;;;;5036406;28;20034;-67
2022/12/18 07:01:03;;;;;;;44.38;19.33;;;;;;;;;;5035565;28;20044;-69
2022/12/18 07:03:30;;;;;;;60.20;26.88;;;;;;;;;;5032447;28;20051;-67
2022/12/18 07:05:56;;;;;;;52.80;21.77;;;;;;;;;;5031476;28;20144;-69
2022/12/18 07:08:22;;;;;;;48.20;21.42;;;;;;;;;;5028400;28;20482;-66
2022/12/18 07:10:51;;;;;;;39.15;17.92;;;;;;;;;;5027904;28;20049;-68
2022/12/18 07:13:17;;;;;;;49.28;20.05;;;;;;;;;;5029037;28;20030;-67
2022/12/18 07:15:44;;;;;;;37.70;17.52;;;;;;;;;;5027418;28;20494;-67
2022/12/18 07:18:10;;;;;;;43.65;18.33;;;;;;;;;;5023038;28;20021;-69
2022/12/18 07:20:36;;;;;;;44.17;18.80;;;;;;;;;;5024926;28;20076;-67
2022/12/18 07:23:06;;;;;;;43.60;19.17;;;;;;;;;;5020823;28;20038;-69
2022/12/18 07:25:35;;;;;;;48.92;19.33;;;;;;;;;;5024561;28;20425;-69
2022/12/18 07:28:01;;;;;;;43.05;18.60;;;;;;;;;;5021358;28;20057;-67
2022/12/18 07:30:27;;;;;;;41.42;17.77;;;;;;;;;;5025506;28;20038;-68
2022/12/18 07:32:53;;;;;;;47.38;17.85;;;;;;;;;;5033192;28;20037;-68
2022/12/18 07:35:19;;;;;;;43.28;18.05;;;;;;;;;;5033473;28;20096;-68
2022/12/18 07:37:45;;;;;;;45.03;18.80;;;;;;;;;;5033241;28;20559;-70
2022/12/18 07:40:12;;;;;;;43.42;17.58;;;;;;;;;;5032388;28;20108;-71
2022/12/18 07:42:38;;;;;;;188.15;77.78;;;;;;;;;;5033238;28;20037;-68
2022/12/18 07:45:04;;;;;;;70.07;31.38;;;;;;;;;;5032507;28;20084;-71
2022/12/18 07:47:30;;;;;;;50.70;17.83;;;;;;;;;;5029235;28;20577;-69
2022/12/18 07:49:56;;;;;;;43.42;16.52;;;;;;;;;;5031429;28;20383;-70
2022/12/18 07:52:22;;;;;;;41.25;17.80;;;;;;;;;;5030118;28;20593;-68
2022/12/18 07:54:49;;;;;;;38.55;16.92;;;;;;;;;;5023402;28;20061;-70
2022/12/18 07:57:16;;;;;;;50.03;17.15;;;;;;;;;;5029844;28;20192;-69
2022/12/18 07:59:42;;;;;;;43.38;14.80;;;;;;;;;;5023500;28;20032;-68
2022/12/18 08:02:08;;;;;;;39.15;15.75;;;;;;;;;;5026084;28;20402;-71
2022/12/18 08:04:35;;;;;;;35.20;16.48;;;;;;;;;;5023283;28;20041;-73
2022/12/18 08:07:02;;;;;;;35.83;16.67;;;;;;;;;;5039614;28;20044;-69
2022/12/18 08:09:28;;;;;;;38.58;15.93;;;;;;;;;;5047189;28;20032;-69
2022/12/18 08:11:54;;;;;;;44.67;18.38;;;;;;;;;;5038778;28;20025;-69
2022/12/18 08:14:20;;;;;;;41.35;16.15;;;;;;;;;;5046475;28;20120;-69
2022/12/18 08:16:46;;;;;;;51.75;17.45;;;;;;;;;;5044931;28;20033;-70
2022/12/18 08:19:12;;;;;;;39.67;17.70;;;;;;;;;;5044911;28;20025;-68
2022/12/18 08:21:38;;;;;;;35.78;15.57;;;;;;;;;;5046284;28;20048;-73
2022/12/18 08:24:04;;;;;;;34.75;16.15;;;;;;;;;;5041709;28;20059;-69
2022/12/18 08:26:31;;;;;;;40.25;17.45;;;;;;;;;;5045032;28;20123;-69
2022/12/18 08:28:58;;;;;;;34.17;16.15;;;;;;;;;;5046080;28;20429;-70
2022/12/18 08:31:25;;;;;;;49.03;18.02;;;;;;;;;;5047017;28;20094;-77
2022/12/18 08:33:52;;;;;;;34.33;16.58;;;;;;;;;;5027328;28;20048;-70
2022/12/18 08:36:18;;;;;;;41.78;17.17;;;;;;;;;;5047497;28;20094;-71
2022/12/18 08:38:45;;;;;;;32.70;16.17;;;;;;;;;;5046801;28;20086;-71
2022/12/18 08:41:12;;;;;;;39.35;16.35;;;;;;;;;;5044107;28;20436;-71
2022/12/18 08:46:25;;;;;;;34.33;16.48;;;;;;;;;;5042623;28;20166;-69
2022/12/18 08:48:52;;;;;;;34.83;15.70;;;;;;;;;;5043545;28;20390;-71
2022/12/18 08:51:18;;;;;;;33.38;16.15;;;;;;;;;;5042866;28;20116;-69
2022/12/18 08:53:44;;;;;;;31.83;14.63;;;;;;;;;;5034316;28;20473;-70
2022/12/18 08:56:11;;;;;;;31.42;14.68;;;;;;;;;;5035240;28;20033;-71
2022/12/18 08:58:37;;;;;;;32.72;16.00;;;;;;;;;;5037036;28;20061;-71
2022/12/18 09:01:04;;;;;;;33.50;15.25;;;;;;;;;;5040024;28;20102;-72
2022/12/18 09:03:30;;;;;;;28.23;14.48;;;;;;;;;;5032883;28;20029;-70
2022/12/18 09:05:56;;;;;;;27.70;15.27;;;;;;;;;;5039083;28;20088;-70
2022/12/18 09:08:22;;;;;;;65.35;27.05;;;;;;;;;;5025122;28;20041;-71
2022/12/18 09:10:49;;;;;;;38.10;16.80;;;;;;;;;;5042915;28;20068;-70
2022/12/18 09:13:16;;;;;;;36.13;16.63;;;;;;;;;;5041082;28;20046;-69
2022/12/18 09:15:42;;;;;;;30.95;15.25;;;;;;;;;;5041703;28;20139;-70
2022/12/18 09:18:09;;;;;;;25.52;13.82;;;;;;;;;;5046417;28;20029;-70
2022/12/18 09:20:36;;;;;;;28.55;14.10;;;;;;;;;;5042107;28;20034;-71
2022/12/18 09:23:03;;;;;;;30.05;15.82;;;;;;;;;;5042441;28;20039;-70
2022/12/18 09:25:33;;;;;;;29.98;15.05;;;;;;;;;;5027051;28;20159;-69
2022/12/18 09:28:06;;;;;;;29.10;14.10;;;;;;;;;;5045407;28;20079;-74
2022/12/18 09:30:35;;;;;;;28.25;14.55;;;;;;;;;;5042128;28;20507;-70
2022/12/18 09:33:01;;;;;;;26.17;13.30;;;;;;;;;;5025556;28;20672;-76
2022/12/18 09:35:28;;;;;;;28.75;14.02;;;;;;;;;;5026426;28;20032;-70
2022/12/18 09:37:54;;;;;;;24.70;13.30;;;;;;;;;;5042379;28;20041;-70
2022/12/18 09:40:22;;;;;;;23.80;13.27;;;;;;;;;;5043803;28;20057;-71
2022/12/18 09:43:01;;;;;;;34.92;17.88;;;;;;;;;;5037156;28;20075;-75
2022/12/18 09:45:28;;;;;;;23.08;12.52;;;;;;;;;;5024362;28;20032;-72
2022/12/18 09:47:55;;;;;;;26.27;13.52;;;;;;;;;;5041987;28;20029;-71
2022/12/18 09:50:29;;;;;;;19.48;11.30;;;;;;;;;;5035990;28;20048;-70
2022/12/18 09:52:57;;;;;;;23.10;11.95;;;;;;;;;;5035858;28;20478;-71
2022/12/18 09:55:23;;;;;;;21.33;11.07;;;;;;;;;;5025012;28;20060;-69
2022/12/18 09:57:52;;;;;;;22.75;11.55;;;;;;;;;;5043902;28;20025;-69
2022/12/18 10:00:22;;;;;;;21.75;12.80;;;;;;;;;;5041232;28;20039;-74
2022/12/18 10:02:50;;;;;;;22.33;11.68;;;;;;;;;;5040997;28;20401;-70
2022/12/18 10:05:17;;;;;;;23.42;12.40;;;;;;;;;;5043430;28;20029;-68
2022/12/18 10:07:43;;;;;;;21.27;11.68;;;;;;;;;;5044692;28;20638;-73
2022/12/18 10:10:23;;;;;;;15.93;9.57;;;;;;;;;;5041507;28;20060;-71
2022/12/18 10:12:55;;;;;;;19.00;9.65;;;;;;;;;;5020805;28;20040;-72
2022/12/18 10:15:36;;;;;;;19.48;11.00;;;;;;;;;;5019860;28;20115;-70
2022/12/18 10:18:02;;;;;;;18.83;10.18;;;;;;;;;;5023929;28;20029;-70
2022/12/18 10:21:04;;;;;;;19.80;10.15;;;;;;;;;;5042335;28;20040;-70
2022/12/18 10:24:02;;;;;;;18.50;11.00;;;;;;;;;;4978747;28;20042;-69
2022/12/18 10:26:28;;;;;;;20.02;10.48;;;;;;;;;;4998064;28;20438;-69
2022/12/18 10:28:54;;;;;;;19.20;10.48;;;;;;;;;;5020406;28;20466;-70
2022/12/18 10:31:23;;;;;;;67.97;29.40;;;;;;;;;;5042788;28;20369;-69
2022/12/18 10:33:49;;;;;;;16.73;9.60;;;;;;;;;;5041199;28;20076;-70
2022/12/18 10:36:15;;;;;;;23.02;10.77;;;;;;;;;;5019268;28;20432;-71
2022/12/18 10:38:42;;;;;;;21.45;10.07;;;;;;;;;;5042537;28;20126;-70
2022/12/18 10:41:21;;;;;;;17.25;10.05;;;;;;;;;;5023838;28;20416;-70
2022/12/18 10:43:48;;;;;;;15.57;8.82;;;;;;;;;;5039442;28;20041;-70
2022/12/18 10:46:21;;;;;;;21.77;9.77;;;;;;;;;;5041745;28;20024;-70
2022/12/18 10:48:47;;;;;;;20.42;9.90;;;;;;;;;;5025175;28;20063;-70
2022/12/18 10:51:20;;;;;;;15.68;9.02;;;;;;;;;;5043257;28;20449;-71
2022/12/18 10:53:51;;;;;;;19.13;10.57;;;;;;;;;;5041737;28;20107;-69
2022/12/18 10:56:20;;;;;;;23.60;9.90;;;;;;;;;;5043739;28;20504;-71
2022/12/18 10:58:55;;;;;;;13.82;8.27;;;;;;;;;;5037071;28;20099;-69
2022/12/18 11:01:21;;;;;;;16.77;8.65;;;;;;;;;;5035061;28;20044;-71
2022/12/18 11:03:50;;;;;;;18.33;9.25;;;;;;;;;;5019899;28;20061;-74
2022/12/18 11:06:18;;;;;;;21.60;9.85;;;;;;;;;;5040267;28;20513;-71
2022/12/18 11:08:45;;;;;;;18.85;8.93;;;;;;;;;;5034782;28;20059;-70
2022/12/18 11:11:21;;;;;;;18.55;8.45;;;;;;;;;;5035685;28;20174;-70
2022/12/18 11:14:00;;;;;;;17.58;10.13;;;;;;;;;;5039727;28;20516;-72
2022/12/18 11:16:26;;;;;;;16.05;9.30;;;;;;;;;;5040392;28;20072;-69
2022/12/18 11:18:52;;;;;;;17.70;10.30;;;;;;;;;;5032374;28;20115;-69
2022/12/18 11:21:19;;;;;;;18.02;9.35;;;;;;;;;;5037912;28;20359;-69
2022/12/18 11:23:52;;;;;;;18.42;8.82;;;;;;;;;;5038504;28;20120;-69
2022/12/18 11:26:19;;;;;;;13.57;8.32;;;;;;;;;;5039349;28;20044;-70
2022/12/18 11:28:45;;;;;;;17.50;9.43;;;;;;;;;;5043101;28;20050;-70
2022/12/18 11:31:17;;;;;;;17.38;9.88;;;;;;;;;;5040696;28;20419;-71
2022/12/18 11:33:46;;;;;;;20.50;8.63;;;;;;;;;;5040716;28;20045;-70
2022/12/18 11:36:12;;;;;;;13.55;8.77;;;;;;;;;;5033993;28;20535;-70
2022/12/18 11:38:43;;;;;;;17.27;8.70;;;;;;;;;;5031883;28;20031;-70
2022/12/18 11:41:17;;;;;;;16.17;9.23;;;;;;;;;;5037861;28;20119;-71
2022/12/18 11:43:43;;;;;;;16.80;9.88;;;;;;;;;;5038781;28;20025;-70
2022/12/18 11:46:13;;;;;;;17.60;8.88;;;;;;;;;;5041233;28;20036;-73
2022/12/18 11:48:45;;;;;;;18.45;8.95;;;;;;;;;;5039192;28;20021;-70
2022/12/18 11:51:13;;;;;;;14.50;8.60;;;;;;;;;;5038489;28;20075;-74
2022/12/18 11:53:39;;;;;;;15.50;8.60;;;;;;;;;;5040743;28;20473;-72
2022/12/18 11:56:15;;;;;;;16.83;9.25;;;;;;;;;;5027888;28;20090;-71
2022/12/18 11:58:51;;;;;;;14.43;7.80;;;;;;;;;;5047144;28;20028;-70
2022/12/18 12:01:35;;;;;;;12.63;8.45;;;;;;;;;;5045074;28;20040;-69
2022/12/18 12:04:04;;;;;;;13.50;8.30;;;;;;;;;;5045626;28;20041;-75
2022/12/18 12:06:30;;;;;;;13.00;7.85;;;;;;;;;;5043046;28;20045;-70
2022/12/18 12:09:08;;;;;;;19.35;9.48;;;;;;;;;;5046515;28;20396;-68
2022/12/18 12:11:53;;;;;;;18.35;10.57;;;;;;;;;;5050769;28;20408;-70
2022/12/18 12:14:38;;;;;;;11.75;7.55;;;;;;;;;;5029998;28;20045;-70
2022/12/18 12:17:12;;;;;;;14.70;7.45;;;;;;;;;;5041481;28;20022;-69
2022/12/18 12:19:49;;;;;;;13.93;7.68;;;;;;;;;;5040388;28;20028;-71
2022/12/18 12:22:21;;;;;;;12.35;7.03;;;;;;;;;;5051990;28;20472;-68
2022/12/18 12:24:55;;;;;;;12.38;7.60;;;;;;;;;;5051442;28;20041;-69
2022/12/18 12:27:28;;;;;;;12.45;7.53;;;;;;;;;;5050767;28;20021;-70
2022/12/18 12:30:09;;;;;;;14.55;8.10;;;;;;;;;;5037823;28;20036;-69
2022/12/18 12:32:41;;;;;;;19.73;8.40;;;;;;;;;;5051940;28;20109;-68
2022/12/18 12:35:30;;;;;;;16.45;7.75;;;;;;;;;;5051728;28;20025;-69
2022/12/18 12:38:05;;;;;;;9.77;6.15;;;;;;;;;;5051394;28;20059;-70
2022/12/18 12:40:33;;;;;;;10.30;5.30;;;;;;;;;;5052230;28;20442;-69
2022/12/18 12:43:14;;;;;;;13.63;6.75;;;;;;;;;;5052404;28;20044;-70
2022/12/18 12:45:47;;;;;;;10.93;5.72;;;;;;;;;;5046981;28;20037;-75
2022/12/18 12:48:25;;;;;;;13.18;5.85;;;;;;;;;;5032364;28;20108;-70
2022/12/18 12:50:52;;;;;;;8.77;5.57;;;;;;;;;;5048630;28;20041;-69
2022/12/18 12:53:22;;;;;;;8.27;5.15;;;;;;;;;;5034145;28;20033;-68
2022/12/18 12:55:48;;;;;;;9.32;5.15;;;;;;;;;;5021357;28;20438;-71
2022/12/18 12:58:14;;;;;;;7.57;4.97;;;;;;;;;;5032143;28;20033;-70
2022/12/18 13:00:44;;;;;;;10.85;5.55;;;;;;;;;;5025571;28;20029;-70
2022/12/18 13:03:29;;;;;;;9.18;5.13;;;;;;;;;;5043600;28;20029;-70
2022/12/18 13:05:59;;;;;;;14.52;5.47;;;;;;;;;;5030793;28;20511;-73
2022/12/18 13:08:29;;;;;;;7.50;4.72;;;;;;;;;;5049117;28;20035;-69
2022/12/18 13:13:54;;;;;;;9.05;5.05;;;;;;;;;;5049305;28;20052;-69
2022/12/18 13:16:22;;;;;;;10.38;5.13;;;;;;;;;;5038216;28;20071;-71
2022/12/18 13:18:57;;;;;;;6.68;4.53;;;;;;;;;;5042982;28;20029;-69
2022/12/18 13:21:29;;;;;;;9.32;4.90;;;;;;;;;;5050583;28;20036;-70
2022/12/18 13:23:55;;;;;;;6.20;4.47;;;;;;;;;;5033434;28;20389;-70
2022/12/18 13:26:24;;;;;;;8.25;4.57;;;;;;;;;;5051139;28;20032;-68
2022/12/18 13:28:54;;;;;;;13.20;4.75;;;;;;;;;;5051439;28;20112;-70
2022/12/18 13:31:39;;;;;;;8.57;4.80;;;;;;;;;;5032377;28;20474;-69
2022/12/18 13:34:14;;;;;;;6.50;4.35;;;;;;;;;;5049860;28;20389;-69
2022/12/18 13:36:40;;;;;;;9.00;4.40;;;;;;;;;;5048190;28;20044;-69
2022/12/18 13:39:11;;;;;;;6.32;3.88;;;;;;;;;;5033041;28;20029;-70
2022/12/18 13:41:37;;;;;;;9.27;4.50;;;;;;;;;;5048783;28;20033;-69
2022/12/18 13:44:18;;;;;;;7.47;4.57;;;;;;;;;;5030532;28;20056;-71
2022/12/18 13:46:45;;;;;;;8.45;4.43;;;;;;;;;;5035186;28;20104;-69
2022/12/18 13:49:14;;;;;;;9.75;4.60;;;;;;;;;;5035392;28;20034;-69
2022/12/18 13:51:44;;;;;;;8.10;4.57;;;;;;;;;;5049128;28;20040;-70
2022/12/18 13:54:28;;;;;;;6.90;4.00;;;;;;;;;;5030931;28;20029;-71
2022/12/18 13:56:54;;;;;;;9.43;4.00;;;;;;;;;;5030733;28;20037;-71
2022/12/18 13:59:27;;;;;;;6.40;3.80;;;;;;;;;;5035932;28;20029;-70
2022/12/18 14:01:54;;;;;;;8.02;4.53;;;;;;;;;;5039157;28;20437;-70
2022/12/18 14:04:25;;;;;;;8.10;4.30;;;;;;;;;;5045490;28;20090;-71
2022/12/18 14:06:57;;;;;;;9.40;4.07;;;;;;;;;;5044365;28;20102;-70
2022/12/18 14:09:27;;;;;;;7.00;4.28;;;;;;;;;;5048705;28;20052;-69
2022/12/18 14:12:56;;;;;;;6.00;4.40;;;;;;;;;;5050860;28;20046;-69
2022/12/18 14:14:41;;;;;;;7.63;4.53;;;;;;;;;;5050206;28;20033;-71
2022/12/18 14:17:10;;;;;;;10.63;4.75;;;;;;;;;;5043054;28;20028;-70
2022/12/18 14:19:36;;;;;;;6.25;4.07;;;;;;;;;;5027842;28;20338;-69
2022/12/18 14:22:02;;;;;;;7.75;4.50;;;;;;;;;;5031356;28;20029;-69
2022/12/18 14:24:29;;;;;;;8.73;4.80;;;;;;;;;;5013262;28;20042;-70
2022/12/18 14:27:12;;;;;;;8.70;4.28;;;;;;;;;;5048362;28;20485;-71
2022/12/18 14:29:44;;;;;;;8.07;4.68;;;;;;;;;;5041306;28;20466;-70
2022/12/18 14:32:16;;;;;;;9.80;4.47;;;;;;;;;;5027429;28;20028;-74
2022/12/18 14:34:43;;;;;;;7.88;4.13;;;;;;;;;;5031955;28;20094;-71
2022/12/18 14:37:14;;;;;;;7.85;4.32;;;;;;;;;;5046036;28;20020;-71
2022/12/18 14:39:40;;;;;;;7.68;5.15;;;;;;;;;;5028969;28;20060;-70